createdAt,value
2022-07-30T00:01:39.737Z,44.09
2022-07-30T00:04:06.606Z,44.28
2022-07-30T00:06:33.276Z,43.91
2022-07-30T00:08:59.960Z,44.16
2022-07-30T00:11:28.035Z,44.12
2022-07-30T00:13:55.205Z,44.08
2022-07-30T00:16:21.820Z,44.25
2022-07-30T00:18:48.504Z,44.11
2022-07-30T00:21:34.697Z,44.14
2022-07-30T00:24:02.483Z,44.25
2022-07-30T00:26:29.248Z,44.20
2022-07-30T00:28:56.012Z,44.03
2022-07-30T00:31:23.300Z,44.09
2022-07-30T00:33:49.932Z,44.20
2022-07-30T00:36:16.472Z,44.00
2022-07-30T00:38:43.168Z,43.92
2022-07-30T00:41:09.709Z,44.28
2022-07-30T00:43:36.338Z,44.09
2022-07-30T00:46:03.130Z,44.31
2022-07-30T00:48:29.773Z,44.16
2022-07-30T00:50:56.432Z,44.27
2022-07-30T00:53:24.009Z,43.98
2022-07-30T00:55:50.667Z,44.27
2022-07-30T00:58:17.219Z,44.09
2022-07-30T01:00:43.973Z,44.03
2022-07-30T01:03:10.646Z,44.06
2022-07-30T01:05:37.250Z,44.03
2022-07-30T01:08:04.280Z,44.15
2022-07-30T01:10:30.847Z,44.07
2022-07-30T01:12:59.125Z,44.20
2022-07-30T01:15:26.033Z,44.06
2022-07-30T01:17:56.738Z,44.03
2022-07-30T01:20:28.905Z,44.27
2022-07-30T01:23:21.476Z,44.27
2022-07-30T01:26:02.655Z,44.04
2022-07-30T01:28:33.680Z,44.14
2022-07-30T01:31:01.542Z,44.37
2022-07-30T01:33:30.025Z,43.94
2022-07-30T01:35:58.328Z,44.19
2022-07-30T01:38:27.387Z,44.29
2022-07-30T01:40:59.333Z,43.91
2022-07-30T01:43:27.158Z,44.40
2022-07-30T01:45:55.464Z,44.20
2022-07-30T01:48:24.806Z,44.31
2022-07-30T01:50:55.029Z,44.14
2022-07-30T01:53:25.148Z,44.42
2022-07-30T01:55:54.449Z,44.15
2022-07-30T01:58:25.452Z,43.95
2022-07-30T02:00:58.247Z,44.06
2022-07-30T02:03:26.768Z,44.42
2022-07-30T02:06:00.665Z,44.23
2022-07-30T02:08:54.637Z,44.09
2022-07-30T02:11:41.856Z,44.32
2022-07-30T02:14:18.129Z,44.01
2022-07-30T02:16:50.210Z,44.26
2022-07-30T02:19:19.720Z,44.07
2022-07-30T02:21:51.055Z,44.12
2022-07-30T02:24:25.875Z,44.16
2022-07-30T02:26:58.233Z,44.08
2022-07-30T02:29:25.802Z,44.18
2022-07-30T02:31:56.263Z,44.34
2022-07-30T02:34:24.980Z,44.44
2022-07-30T02:36:53.110Z,44.33
2022-07-30T02:39:21.331Z,44.33
2022-07-30T02:41:50.064Z,44.12
2022-07-30T02:44:20.327Z,44.16
2022-07-30T02:46:48.801Z,44.17
2022-07-30T02:49:52.425Z,44.32
2022-07-30T02:52:19.799Z,44.17
2022-07-30T02:54:49.431Z,44.29
2022-07-30T02:57:19.412Z,44.39
2022-07-30T02:59:47.800Z,44.30
2022-07-30T03:02:15.138Z,44.20
2022-07-30T03:04:43.284Z,44.38
2022-07-30T03:07:11.164Z,44.46
2022-07-30T03:09:51.926Z,44.01
2022-07-30T03:12:21.604Z,44.11
2022-07-30T03:14:48.343Z,44.38
2022-07-30T03:17:17.137Z,44.12
2022-07-30T03:19:45.622Z,44.21
2022-07-30T03:22:14.763Z,44.46
2022-07-30T03:24:44.341Z,44.11
2022-07-30T03:27:13.749Z,44.42
2022-07-30T03:29:41.905Z,44.28
2022-07-30T03:32:09.236Z,43.95
2022-07-30T03:34:42.071Z,43.96
2022-07-30T03:37:10.975Z,44.25
2022-07-30T03:39:39.749Z,44.11
2022-07-30T03:42:08.048Z,44.35
2022-07-30T03:44:37.160Z,44.18
2022-07-30T03:47:06.137Z,44.33
2022-07-30T03:49:38.705Z,44.42
2022-07-30T03:52:09.938Z,44.33
2022-07-30T03:54:37.128Z,44.27
2022-07-30T03:57:09.884Z,44.20
2022-07-30T03:59:43.350Z,44.24
2022-07-30T04:02:10.165Z,44.33
2022-07-30T04:05:05.893Z,44.44
2022-07-30T04:07:33.131Z,44.40
2022-07-30T04:09:59.700Z,44.32
2022-07-30T04:12:45.256Z,44.10
2022-07-30T04:16:35.555Z,44.32
2022-07-30T04:18:04.363Z,44.22
2022-07-30T04:20:36.802Z,44.34
2022-07-30T04:23:04.197Z,44.46
2022-07-30T04:25:32.003Z,44.33
2022-07-30T04:28:03.786Z,44.17
2022-07-30T04:30:34.757Z,44.09
2022-07-30T04:33:03.332Z,44.25
2022-07-30T04:35:51.292Z,44.53
2022-07-30T04:38:32.376Z,44.15
2022-07-30T04:40:59.057Z,44.16
2022-07-30T04:43:28.245Z,44.50
2022-07-30T04:45:55.098Z,44.52
2022-07-30T04:48:21.990Z,44.23
2022-07-30T04:51:07.329Z,44.25
2022-07-30T04:53:35.328Z,44.48
2022-07-30T04:56:04.195Z,44.43
2022-07-30T04:58:33.780Z,44.33
2022-07-30T05:01:01.935Z,44.54
2022-07-30T05:03:31.678Z,44.43
2022-07-30T05:06:00.329Z,44.48
2022-07-30T05:08:31.307Z,44.40
2022-07-30T05:11:01.043Z,44.61
2022-07-30T05:15:51.686Z,44.27
2022-07-30T05:18:20.170Z,44.29
2022-07-30T05:20:46.776Z,44.56
2022-07-30T05:23:21.273Z,44.38
2022-07-30T05:26:21.673Z,44.37
2022-07-30T05:28:55.259Z,44.64
2022-07-30T05:31:30.654Z,44.51
2022-07-30T05:34:03.591Z,44.42
2022-07-30T05:36:39.916Z,44.51
2022-07-30T05:39:06.549Z,44.60
2022-07-30T05:41:44.932Z,44.31
2022-07-30T05:44:21.982Z,44.50
2022-07-30T05:46:50.468Z,44.36
2022-07-30T05:49:17.422Z,44.42
2022-07-30T05:51:45.284Z,44.63
2022-07-30T05:54:12.405Z,44.32
2022-07-30T05:57:08.188Z,44.59
2022-07-30T05:59:37.865Z,44.65
2022-07-30T06:02:30.632Z,44.69
2022-07-30T06:05:15.992Z,44.68
2022-07-30T06:07:43.425Z,44.74
2022-07-30T06:10:10.173Z,44.39
2022-07-30T06:12:37.527Z,44.83
2022-07-30T06:15:04.604Z,44.36
2022-07-30T06:17:44.836Z,44.63
2022-07-30T06:20:30.407Z,44.66
2022-07-30T06:23:08.907Z,44.47
2022-07-30T06:26:04.528Z,44.59
2022-07-30T06:28:39.438Z,44.75
2022-07-30T06:31:35.825Z,44.68
2022-07-30T06:34:02.405Z,44.56
2022-07-30T06:36:34.564Z,44.49
2022-07-30T06:39:05.081Z,44.47
2022-07-30T06:41:52.080Z,44.48
2022-07-30T06:44:18.741Z,44.71
2022-07-30T06:46:51.111Z,44.47
2022-07-30T06:49:20.177Z,44.90
2022-07-30T06:53:59.517Z,44.48
2022-07-30T06:56:29.022Z,44.61
2022-07-30T06:59:01.847Z,44.57
2022-07-30T07:01:47.203Z,44.84
2022-07-30T07:04:14.757Z,44.75
2022-07-30T07:06:41.487Z,44.86
2022-07-30T07:09:10.021Z,44.55
2022-07-30T07:11:44.919Z,44.71
2022-07-30T07:14:15.740Z,44.57
2022-07-30T07:16:42.352Z,44.61
2022-07-30T07:19:59.447Z,44.86
2022-07-30T07:22:18.356Z,44.51
2022-07-30T07:24:45.036Z,44.58
2022-07-30T07:27:16.734Z,44.72
2022-07-30T07:30:04.693Z,44.64
2022-07-30T07:32:36.221Z,44.59
2022-07-30T07:35:04.616Z,44.66
2022-07-30T07:37:32.912Z,44.83
2022-07-30T07:39:59.745Z,44.82
2022-07-30T07:42:29.288Z,44.79
2022-07-30T07:44:56.024Z,44.61
2022-07-30T07:47:23.593Z,44.33
2022-07-30T07:50:10.583Z,44.87
2022-07-30T07:52:37.244Z,44.46
2022-07-30T07:55:04.127Z,44.58
2022-07-30T07:57:44.513Z,44.44
2022-07-30T08:00:15.161Z,44.41
2022-07-30T08:02:51.330Z,44.55
2022-07-30T08:05:18.956Z,44.81
2022-07-30T08:07:46.051Z,44.69
2022-07-30T08:10:31.697Z,44.79
2022-07-30T08:13:47.857Z,44.51
2022-07-30T08:16:22.214Z,44.53
2022-07-30T08:18:51.940Z,44.79
2022-07-30T08:21:26.309Z,44.73
2022-07-30T08:23:53.123Z,44.78
2022-07-30T08:26:20.040Z,44.75
2022-07-30T08:28:46.938Z,44.57
2022-07-30T08:31:13.683Z,44.94
2022-07-30T08:33:40.329Z,44.85
2022-07-30T08:36:09.647Z,44.97
2022-07-30T08:38:38.150Z,44.73
2022-07-30T08:41:05.332Z,44.91
2022-07-30T08:43:35.780Z,44.73
2022-07-30T08:46:05.291Z,45.02
2022-07-30T08:49:07.575Z,44.90
2022-07-30T08:51:36.726Z,44.68
2022-07-30T08:54:28.212Z,44.85
2022-07-30T08:56:55.949Z,44.68
2022-07-30T08:59:24.588Z,44.59
2022-07-30T09:02:12.995Z,44.60
2022-07-30T09:04:54.328Z,44.96
2022-07-30T09:07:21.142Z,44.75
2022-07-30T09:09:47.978Z,44.85
2022-07-30T09:12:36.570Z,44.79
2022-07-30T09:15:10.005Z,44.92
2022-07-30T09:18:00.545Z,44.63
2022-07-30T09:20:32.556Z,45.00
2022-07-30T09:23:02.986Z,44.75
2022-07-30T09:28:16.133Z,44.62
2022-07-30T09:31:02.396Z,44.96
2022-07-30T09:33:47.892Z,44.70
2022-07-30T09:38:56.504Z,44.75
2022-07-30T09:41:46.405Z,44.96
2022-07-30T09:44:23.940Z,44.70
2022-07-30T09:46:53.523Z,45.03
2022-07-30T09:49:31.716Z,44.91
2022-07-30T09:51:59.217Z,44.92
2022-07-30T09:54:51.580Z,44.70
2022-07-30T09:57:27.569Z,44.85
2022-07-30T10:00:24.003Z,45.06
2022-07-30T10:05:31.449Z,46.00
2022-07-30T10:08:02.621Z,46.47
2022-07-30T10:10:31.527Z,46.31
2022-07-30T10:13:04.431Z,46.46
2022-07-30T10:15:37.153Z,46.62
2022-07-30T10:18:06.083Z,46.76
2022-07-30T10:21:10.865Z,46.67
2022-07-30T10:23:56.673Z,46.48
2022-07-30T10:26:43.529Z,46.39
2022-07-30T10:29:33.730Z,46.46
2022-07-30T10:32:02.095Z,46.24
2022-07-30T10:34:33.913Z,46.53
2022-07-30T10:37:06.609Z,46.03
2022-07-30T10:39:47.380Z,46.35
2022-07-30T10:42:37.307Z,46.17
2022-07-30T10:45:23.475Z,46.21
2022-07-30T10:47:52.267Z,46.17
2022-07-30T10:50:26.446Z,46.17
2022-07-30T10:52:58.767Z,45.62
2022-07-30T10:55:36.822Z,45.92
2022-07-30T10:58:08.620Z,45.70
2022-07-30T11:00:53.797Z,45.98
2022-07-30T11:03:40.036Z,46.26
2022-07-30T11:06:24.025Z,46.16
2022-07-30T11:08:50.805Z,46.36
2022-07-30T11:11:59.060Z,46.54
2022-07-30T11:14:09.965Z,46.46
2022-07-30T11:16:36.981Z,46.29
2022-07-30T11:19:56.988Z,46.45
2022-07-30T11:22:28.176Z,46.38
2022-07-30T11:24:55.671Z,46.54
2022-07-30T11:27:45.867Z,46.53
2022-07-30T11:30:17.232Z,46.25
2022-07-30T11:32:48.489Z,46.42
2022-07-30T11:38:19.705Z,46.67
2022-07-30T11:40:49.175Z,46.62
2022-07-30T11:43:34.833Z,46.62
2022-07-30T11:46:12.292Z,46.47
2022-07-30T11:48:56.900Z,46.22
2022-07-30T11:51:24.389Z,46.33
2022-07-30T11:54:17.569Z,46.17
2022-07-30T11:57:02.081Z,46.42
2022-07-30T11:59:30.840Z,46.36
2022-07-30T12:02:01.583Z,46.09
2022-07-30T12:04:28.678Z,46.32
2022-07-30T12:06:55.729Z,45.98
2022-07-30T12:09:29.836Z,45.84
2022-07-30T12:11:57.337Z,46.25
2022-07-30T12:14:24.241Z,46.26
2022-07-30T12:16:53.078Z,45.92
2022-07-30T12:19:19.965Z,46.23
2022-07-30T12:21:50.927Z,46.03
2022-07-30T12:24:25.950Z,46.17
2022-07-30T12:26:52.628Z,46.12
2022-07-30T12:29:19.469Z,45.80
2022-07-30T12:31:46.820Z,45.90
2022-07-30T12:34:24.899Z,45.74
2022-07-30T12:36:51.989Z,46.06
2022-07-30T12:39:21.327Z,45.94
2022-07-30T12:41:50.332Z,46.04
2022-07-30T12:44:45.124Z,45.96
2022-07-30T12:47:26.616Z,45.65
2022-07-30T12:49:55.851Z,45.94
2022-07-30T12:52:30.995Z,45.64
2022-07-30T12:55:12.425Z,45.62
2022-07-30T12:57:56.487Z,45.73
2022-07-30T13:00:25.057Z,45.92
2022-07-30T13:02:51.901Z,45.63
2022-07-30T13:05:18.525Z,45.58
2022-07-30T13:08:00.121Z,45.98
2022-07-30T13:10:31.298Z,45.57
2022-07-30T13:12:58.592Z,45.54
2022-07-30T13:15:25.380Z,45.87
2022-07-30T13:17:52.010Z,45.80
2022-07-30T13:20:18.686Z,45.77
2022-07-30T13:22:45.490Z,45.57
2022-07-30T13:25:12.861Z,45.64
2022-07-30T13:27:39.807Z,45.70
2022-07-30T13:30:07.048Z,45.75
2022-07-30T13:32:33.682Z,45.39
2022-07-30T13:35:01.882Z,45.48
2022-07-30T13:37:37.892Z,45.77
2022-07-30T13:40:06.092Z,45.68
2022-07-30T13:42:32.829Z,45.75
2022-07-30T13:44:59.457Z,45.35
2022-07-30T13:47:25.992Z,45.71
2022-07-30T13:49:53.369Z,45.72
2022-07-30T13:52:20.097Z,45.69
2022-07-30T13:54:46.624Z,45.23
2022-07-30T13:57:13.235Z,45.69
2022-07-30T13:59:39.875Z,45.62
2022-07-30T14:02:06.443Z,45.38
2022-07-30T14:04:33.113Z,45.34
2022-07-30T14:06:59.810Z,45.81
2022-07-30T14:09:26.848Z,45.64
2022-07-30T14:11:53.591Z,45.50
2022-07-30T14:14:22.363Z,45.55
2022-07-30T14:16:53.655Z,45.41
2022-07-30T14:19:23.177Z,45.44
2022-07-30T14:21:54.693Z,45.23
2022-07-30T14:24:22.214Z,45.25
2022-07-30T14:26:49.164Z,45.33
2022-07-30T14:29:15.720Z,45.52
2022-07-30T14:31:42.671Z,45.67
2022-07-30T14:34:10.120Z,45.62
2022-07-30T14:36:37.339Z,45.32
2022-07-30T14:39:04.852Z,45.38
2022-07-30T14:41:31.682Z,45.60
2022-07-30T14:43:58.286Z,45.56
2022-07-30T14:46:24.939Z,45.50
2022-07-30T14:51:17.664Z,45.48
2022-07-30T14:53:47.482Z,45.55
2022-07-30T14:56:14.378Z,45.19
2022-07-30T14:58:44.182Z,45.60
2022-07-30T15:01:15.545Z,45.05
2022-07-30T15:03:42.856Z,45.46
2022-07-30T15:06:11.753Z,45.21
2022-07-30T15:08:38.884Z,45.26
2022-07-30T15:11:07.850Z,45.23
2022-07-30T15:13:35.734Z,45.55
2022-07-30T15:16:03.394Z,45.52
2022-07-30T15:18:30.014Z,45.20
2022-07-30T15:20:56.633Z,45.55
2022-07-30T15:23:23.272Z,45.30
2022-07-30T15:25:49.809Z,45.24
2022-07-30T15:28:16.635Z,45.44
2022-07-30T15:30:43.356Z,45.20
2022-07-30T15:33:10.002Z,45.54
2022-07-30T15:35:37.464Z,45.49
2022-07-30T15:38:04.353Z,45.43
2022-07-30T15:40:31.048Z,45.49
2022-07-30T15:42:57.765Z,45.55
2022-07-30T15:45:24.984Z,45.41
2022-07-30T15:47:51.768Z,45.52
2022-07-30T15:50:18.430Z,45.44
2022-07-30T15:52:45.242Z,45.49
2022-07-30T15:55:12.309Z,45.32
2022-07-30T15:57:39.024Z,45.38
2022-07-30T16:00:09.797Z,45.08
2022-07-30T16:02:39.854Z,45.57
2022-07-30T16:07:18.584Z,45.26
2022-07-30T16:09:45.273Z,45.50
2022-07-30T16:12:11.981Z,45.23
2022-07-30T16:14:38.609Z,45.48
2022-07-30T16:17:10.472Z,45.62
2022-07-30T16:19:40.981Z,45.67
2022-07-30T16:22:11.452Z,45.42
2022-07-30T16:24:37.997Z,45.60
2022-07-30T16:27:04.713Z,45.38
2022-07-30T16:29:31.336Z,45.65
2022-07-30T16:31:57.961Z,45.72
2022-07-30T16:34:26.512Z,45.38
2022-07-30T16:36:53.853Z,45.52
2022-07-30T16:39:20.502Z,45.50
2022-07-30T16:41:47.111Z,45.50
2022-07-30T16:44:14.137Z,45.44
2022-07-30T16:46:41.803Z,45.45
2022-07-30T16:49:08.448Z,45.48
2022-07-30T16:53:56.120Z,45.78
2022-07-30T16:56:22.704Z,45.93
2022-07-30T16:58:49.225Z,45.68
2022-07-30T17:01:18.958Z,46.00
2022-07-30T17:03:45.618Z,46.00
2022-07-30T17:06:12.215Z,45.90
2022-07-30T17:08:39.170Z,45.86
2022-07-30T17:11:09.056Z,45.70
2022-07-30T17:13:36.750Z,45.90
2022-07-30T17:16:03.439Z,45.83
2022-07-30T17:18:30.081Z,45.83
2022-07-30T17:20:56.684Z,45.87
2022-07-30T17:23:23.362Z,46.17
2022-07-30T17:25:50.183Z,45.96
2022-07-30T17:28:19.456Z,45.95
2022-07-30T17:30:48.709Z,45.83
2022-07-30T17:33:15.241Z,46.28
2022-07-30T17:35:41.848Z,46.12
2022-07-30T17:38:08.430Z,45.98
2022-07-30T17:40:35.136Z,46.07
2022-07-30T17:43:05.526Z,46.01
2022-07-30T17:45:35.773Z,46.43
2022-07-30T17:48:03.176Z,46.09
2022-07-30T17:50:30.727Z,46.29
2022-07-30T17:52:57.401Z,46.23
2022-07-30T17:55:24.894Z,46.24
2022-07-30T17:57:51.634Z,46.17
2022-07-30T18:00:18.342Z,46.21
2022-07-30T18:02:44.926Z,46.33
2022-07-30T18:05:16.921Z,46.14
2022-07-30T18:07:44.382Z,46.38
2022-07-30T18:10:12.168Z,46.26
2022-07-30T18:12:39.023Z,46.71
2022-07-30T18:15:15.681Z,46.50
2022-07-30T18:17:42.221Z,46.49
2022-07-30T18:20:09.497Z,46.83
2022-07-30T18:22:36.085Z,46.77
2022-07-30T18:25:03.119Z,46.70
2022-07-30T18:27:34.367Z,46.89
2022-07-30T18:30:01.049Z,46.61
2022-07-30T18:32:27.636Z,46.94
2022-07-30T18:34:54.226Z,46.76
2022-07-30T18:37:21.000Z,46.91
2022-07-30T18:39:47.514Z,46.72
2022-07-30T18:42:14.089Z,46.75
2022-07-30T18:44:40.691Z,47.00
2022-07-30T18:47:07.312Z,47.08
2022-07-30T18:49:37.044Z,47.03
2022-07-30T18:52:05.398Z,47.09
2022-07-30T18:54:32.295Z,47.15
2022-07-30T18:56:58.901Z,46.99
2022-07-30T18:59:25.489Z,47.12
2022-07-30T19:01:52.228Z,46.93
2022-07-30T19:04:18.849Z,46.86
2022-07-30T19:06:45.649Z,47.27
2022-07-30T19:09:17.294Z,47.03
2022-07-30T19:11:45.361Z,46.90
2022-07-30T19:14:13.264Z,47.06
2022-07-30T19:16:41.834Z,46.83
2022-07-30T19:19:09.069Z,46.92
2022-07-30T19:21:35.848Z,47.35
2022-07-30T19:24:02.413Z,46.94
2022-07-30T19:26:29.148Z,47.27
2022-07-30T19:28:55.958Z,46.99
2022-07-30T19:31:22.565Z,46.96
2022-07-30T19:33:49.538Z,47.24
2022-07-30T19:36:20.595Z,47.16
2022-07-30T19:38:48.848Z,47.33
2022-07-30T19:41:16.379Z,47.18
2022-07-30T19:43:43.185Z,47.47
2022-07-30T19:46:24.520Z,47.44
2022-07-30T19:48:51.182Z,47.09
2022-07-30T19:51:20.963Z,47.10
2022-07-30T19:53:50.337Z,47.17
2022-07-30T19:56:19.536Z,47.41
2022-07-30T19:58:46.236Z,47.11
2022-07-30T20:01:16.036Z,47.40
2022-07-30T20:03:45.789Z,47.34
2022-07-30T20:06:15.132Z,47.24
2022-07-30T20:08:44.833Z,47.40
2022-07-30T20:11:16.395Z,47.25
2022-07-30T20:13:48.061Z,47.21
2022-07-30T20:16:16.079Z,47.28
2022-07-30T20:18:44.391Z,47.00
2022-07-30T20:21:15.374Z,47.46
2022-07-30T20:23:44.395Z,47.41
2022-07-30T20:26:14.283Z,47.27
2022-07-30T20:28:47.934Z,47.23
2022-07-30T20:31:20.565Z,47.40
2022-07-30T20:33:50.917Z,47.19
2022-07-30T20:36:18.440Z,47.50
2022-07-30T20:38:46.896Z,47.44
2022-07-30T20:41:14.709Z,47.15
2022-07-30T20:43:45.856Z,47.12
2022-07-30T20:46:13.770Z,47.35
2022-07-30T20:48:41.960Z,47.48
2022-07-30T20:51:09.513Z,47.33
2022-07-30T20:53:36.960Z,47.60
2022-07-30T20:56:03.969Z,47.54
2022-07-30T20:58:30.568Z,47.39
2022-07-30T21:00:57.297Z,47.33
2022-07-30T21:03:23.923Z,47.43
2022-07-30T21:05:52.726Z,47.19
2022-07-30T21:08:19.527Z,47.19
2022-07-30T21:10:46.749Z,47.17
2022-07-30T21:13:13.694Z,47.33
2022-07-30T21:15:45.755Z,47.08
2022-07-30T21:18:27.973Z,47.52
2022-07-30T21:20:54.499Z,47.42
2022-07-30T21:23:23.662Z,47.33
2022-07-30T21:26:01.998Z,47.28
2022-07-30T21:28:35.549Z,47.03
2022-07-30T21:31:07.161Z,47.12
2022-07-30T21:33:38.546Z,47.20
2022-07-30T21:36:10.286Z,47.46
2022-07-30T21:38:39.165Z,46.98
2022-07-30T21:41:14.433Z,47.37
2022-07-30T21:43:43.013Z,47.34
2022-07-30T21:46:10.578Z,47.12
2022-07-30T21:48:37.479Z,47.33
2022-07-30T21:51:06.356Z,47.12
2022-07-30T21:53:44.962Z,47.34
2022-07-30T21:56:12.503Z,47.35
2022-07-30T21:58:39.398Z,47.33
2022-07-30T22:04:04.762Z,47.35
2022-07-30T22:06:41.444Z,46.94
2022-07-30T22:09:19.015Z,46.94
2022-07-30T22:12:01.250Z,47.23
2022-07-30T22:14:29.141Z,47.29
2022-07-30T22:16:56.511Z,46.95
2022-07-30T22:19:23.241Z,47.34
2022-07-30T22:21:52.807Z,46.80
2022-07-30T22:27:14.478Z,47.04
2022-07-30T22:29:43.068Z,46.84
2022-07-30T22:32:10.887Z,47.17
2022-07-30T22:34:37.681Z,47.08
2022-07-30T22:37:04.472Z,47.18
2022-07-30T22:39:50.316Z,46.96
2022-07-30T22:42:18.484Z,47.25
2022-07-30T22:44:46.052Z,47.28
2022-07-30T22:47:18.849Z,46.82
2022-07-30T22:49:55.787Z,47.01
2022-07-30T22:55:11.806Z,46.82
2022-07-30T22:57:38.477Z,47.24
2022-07-30T23:00:11.000Z,47.10
2022-07-30T23:02:42.208Z,47.20
2022-07-30T23:05:10.411Z,47.00
2022-07-30T23:10:27.667Z,47.04
2022-07-30T23:12:28.082Z,46.99
2022-07-30T23:12:32.586Z,47.05
2022-07-30T23:12:34.278Z,47.29
2022-07-30T23:12:34.325Z,46.82
2022-07-30T23:12:54.488Z,46.88
2022-07-30T23:15:22.001Z,46.79
2022-07-30T23:17:48.772Z,46.85
2022-07-30T23:20:17.852Z,47.19
2022-07-30T23:22:44.457Z,46.88
2022-07-30T23:25:12.253Z,46.85
2022-07-30T23:27:39.547Z,46.86
2022-07-30T23:30:08.369Z,46.89
2022-07-30T23:32:34.973Z,46.77
2022-07-30T23:35:01.564Z,46.72
2022-07-30T23:37:28.529Z,47.02
2022-07-30T23:40:06.717Z,47.05
2022-07-30T23:42:33.313Z,46.92
2022-07-30T23:45:00.057Z,46.83
2022-07-30T23:47:52.887Z,46.77
2022-07-30T23:50:13.344Z,47.03
2022-07-30T23:52:40.418Z,47.00
2022-07-30T23:55:08.585Z,46.59
2022-07-30T23:57:35.093Z,47.01
